CYWG/YWG METAR and TAF weather

Enter ICAO airport designator
Station Type Date Time Source
CYWG METAR 2021/05/11 16:00 UTC NOAA

CYWG 111600Z 25006KT 190V270 15SM SKC 15/M05 A3031 RMK SLP274


Station Type Date Time Source
CYWG Decoded METAR 2021/05/11 16:00 UTC NOAA

Winnipeg Int. Airportman., Canada (CYWG) 49-54N 097-14W 239M
May 11, 2021 - 12:00 PM EDT / 2021.05.11 1600 UTC
Wind: from the WSW (250 degrees) at 7 MPH (6 KT) (direction variable):0
Visibility: 15 mile(s):0
Sky conditions: clear
Temperature: 59 F (15 C)
Dew Point: 23 F (-5 C)
Relative Humidity: 24%
Pressure (altimeter): 30.31 in. Hg (1026 hPa)
ob: CYWG 111600Z 25006KT 190V270 15SM SKC 15/M05 A3031 RMK SLP274
cycle: 16

Station Type Date Time Source
CYWG TAF 2021/05/11 12:42 UTC NOAA

TAF CYWG 111139Z 1112/1212 18010KT P6SM SKC
BECMG 1114/1116 22010KT
BECMG 1121/1123 VRB03KT
FM120500 18010KT P6SM SKC
RMK NXT FCST BY 111800Z

Example: see airport list